sensor_id;sensor_type;location;lat;lon;timestamp;P1;durP1;ratioP1;P2;durP2;ratioP2
6475;SDS011;3271;51.910;5.840;2023-07-16T00:01:12;5.25;;;2.28;;
6475;SDS011;3271;51.910;5.840;2023-07-16T00:03:38;4.50;;;2.20;;
6475;SDS011;3271;51.910;5.840;2023-07-16T00:06:04;5.32;;;2.53;;
6475;SDS011;3271;51.910;5.840;2023-07-16T00:08:29;4.82;;;2.80;;
6475;SDS011;3271;51.910;5.840;2023-07-16T00:10:55;3.67;;;2.35;;
6475;SDS011;3271;51.910;5.840;2023-07-16T00:13:21;4.60;;;2.45;;
6475;SDS011;3271;51.910;5.840;2023-07-16T00:15:47;6.10;;;2.35;;
6475;SDS011;3271;51.910;5.840;2023-07-16T00:18:13;5.93;;;2.53;;
6475;SDS011;3271;51.910;5.840;2023-07-16T00:20:39;7.30;;;3.50;;
6475;SDS011;3271;51.910;5.840;2023-07-16T00:23:05;7.07;;;2.50;;
6475;SDS011;3271;51.910;5.840;2023-07-16T00:25:31;4.80;;;2.45;;
6475;SDS011;3271;51.910;5.840;2023-07-16T00:27:57;6.78;;;3.20;;
6475;SDS011;3271;51.910;5.840;2023-07-16T00:30:23;5.20;;;2.50;;
6475;SDS011;3271;51.910;5.840;2023-07-16T00:32:49;3.70;;;3.13;;
6475;SDS011;3271;51.910;5.840;2023-07-16T00:35:15;5.65;;;3.33;;
6475;SDS011;3271;51.910;5.840;2023-07-16T00:37:41;3.17;;;2.70;;
6475;SDS011;3271;51.910;5.840;2023-07-16T00:40:07;4.85;;;2.60;;
6475;SDS011;3271;51.910;5.840;2023-07-16T00:42:33;6.50;;;3.15;;
6475;SDS011;3271;51.910;5.840;2023-07-16T00:44:59;6.70;;;2.53;;
6475;SDS011;3271;51.910;5.840;2023-07-16T00:47:25;3.88;;;2.42;;
6475;SDS011;3271;51.910;5.840;2023-07-16T00:49:51;4.50;;;2.50;;
6475;SDS011;3271;51.910;5.840;2023-07-16T00:52:18;6.40;;;2.67;;
6475;SDS011;3271;51.910;5.840;2023-07-16T00:54:44;7.88;;;2.50;;
6475;SDS011;3271;51.910;5.840;2023-07-16T00:57:10;6.55;;;2.50;;
6475;SDS011;3271;51.910;5.840;2023-07-16T00:59:36;6.65;;;2.63;;
6475;SDS011;3271;51.910;5.840;2023-07-16T01:02:02;4.63;;;2.60;;
6475;SDS011;3271;51.910;5.840;2023-07-16T01:04:28;9.05;;;3.03;;
6475;SDS011;3271;51.910;5.840;2023-07-16T01:06:55;6.22;;;2.38;;
6475;SDS011;3271;51.910;5.840;2023-07-16T01:09:21;4.57;;;2.58;;
6475;SDS011;3271;51.910;5.840;2023-07-16T01:11:48;6.13;;;2.70;;
6475;SDS011;3271;51.910;5.840;2023-07-16T01:14:16;6.15;;;2.67;;
6475;SDS011;3271;51.910;5.840;2023-07-16T01:16:42;4.90;;;2.50;;
6475;SDS011;3271;51.910;5.840;2023-07-16T01:19:11;4.30;;;2.20;;
6475;SDS011;3271;51.910;5.840;2023-07-16T01:21:48;4.75;;;2.33;;
6475;SDS011;3271;51.910;5.840;2023-07-16T01:24:34;5.78;;;2.60;;
6475;SDS011;3271;51.910;5.840;2023-07-16T01:29:51;4.38;;;2.38;;
6475;SDS011;3271;51.910;5.840;2023-07-16T01:32:17;4.80;;;1.98;;
6475;SDS011;3271;51.910;5.840;2023-07-16T01:34:43;5.03;;;1.98;;
6475;SDS011;3271;51.910;5.840;2023-07-16T01:37:09;3.83;;;2.03;;
6475;SDS011;3271;51.910;5.840;2023-07-16T01:39:35;5.43;;;2.30;;
6475;SDS011;3271;51.910;5.840;2023-07-16T01:42:02;3.65;;;1.73;;
6475;SDS011;3271;51.910;5.840;2023-07-16T01:44:28;8.50;;;3.38;;
6475;SDS011;3271;51.910;5.840;2023-07-16T01:47:10;3.17;;;2.50;;
6475;SDS011;3271;51.910;5.840;2023-07-16T01:49:36;4.45;;;2.60;;
6475;SDS011;3271;51.910;5.840;2023-07-16T01:52:02;5.47;;;2.15;;
6475;SDS011;3271;51.910;5.840;2023-07-16T01:54:28;4.10;;;2.35;;
6475;SDS011;3271;51.910;5.840;2023-07-16T01:56:54;5.78;;;2.63;;
6475;SDS011;3271;51.910;5.840;2023-07-16T01:59:20;5.80;;;2.53;;
6475;SDS011;3271;51.910;5.840;2023-07-16T02:01:46;6.18;;;2.55;;
6475;SDS011;3271;51.910;5.840;2023-07-16T02:04:12;5.28;;;2.80;;
6475;SDS011;3271;51.910;5.840;2023-07-16T02:06:38;5.22;;;2.60;;
6475;SDS011;3271;51.910;5.840;2023-07-16T02:09:04;2.55;;;1.98;;
6475;SDS011;3271;51.910;5.840;2023-07-16T02:11:30;4.18;;;2.30;;
6475;SDS011;3271;51.910;5.840;2023-07-16T02:13:56;4.80;;;2.30;;
6475;SDS011;3271;51.910;5.840;2023-07-16T02:16:22;4.82;;;2.70;;
6475;SDS011;3271;51.910;5.840;2023-07-16T02:18:48;5.47;;;2.13;;
6475;SDS011;3271;51.910;5.840;2023-07-16T02:21:14;4.30;;;2.38;;
6475;SDS011;3271;51.910;5.840;2023-07-16T02:23:39;4.70;;;2.45;;
6475;SDS011;3271;51.910;5.840;2023-07-16T02:26:05;4.82;;;2.90;;
6475;SDS011;3271;51.910;5.840;2023-07-16T02:28:31;4.80;;;2.78;;
6475;SDS011;3271;51.910;5.840;2023-07-16T02:30:58;3.92;;;2.33;;
6475;SDS011;3271;51.910;5.840;2023-07-16T02:33:23;5.80;;;2.30;;
6475;SDS011;3271;51.910;5.840;2023-07-16T02:35:49;3.92;;;2.17;;
6475;SDS011;3271;51.910;5.840;2023-07-16T02:38:16;3.58;;;2.58;;
6475;SDS011;3271;51.910;5.840;2023-07-16T02:40:46;6.35;;;2.53;;
6475;SDS011;3271;51.910;5.840;2023-07-16T02:43:12;4.85;;;2.45;;
6475;SDS011;3271;51.910;5.840;2023-07-16T02:45:38;4.38;;;2.05;;
6475;SDS011;3271;51.910;5.840;2023-07-16T02:48:04;3.45;;;2.05;;
6475;SDS011;3271;51.910;5.840;2023-07-16T02:50:33;4.07;;;2.15;;
6475;SDS011;3271;51.910;5.840;2023-07-16T02:53:00;5.53;;;2.65;;
6475;SDS011;3271;51.910;5.840;2023-07-16T02:55:26;5.60;;;1.88;;
6475;SDS011;3271;51.910;5.840;2023-07-16T02:57:52;3.63;;;2.40;;
6475;SDS011;3271;51.910;5.840;2023-07-16T03:00:17;3.60;;;2.10;;
6475;SDS011;3271;51.910;5.840;2023-07-16T03:02:43;6.65;;;1.98;;
6475;SDS011;3271;51.910;5.840;2023-07-16T03:05:09;3.38;;;2.05;;
6475;SDS011;3271;51.910;5.840;2023-07-16T03:07:35;4.47;;;1.80;;
6475;SDS011;3271;51.910;5.840;2023-07-16T03:10:01;6.35;;;2.40;;
6475;SDS011;3271;51.910;5.840;2023-07-16T03:12:27;3.75;;;2.10;;
6475;SDS011;3271;51.910;5.840;2023-07-16T03:14:53;4.60;;;2.92;;
6475;SDS011;3271;51.910;5.840;2023-07-16T03:17:20;3.88;;;2.38;;
6475;SDS011;3271;51.910;5.840;2023-07-16T03:19:47;4.30;;;2.28;;
6475;SDS011;3271;51.910;5.840;2023-07-16T03:22:13;4.75;;;2.88;;
6475;SDS011;3271;51.910;5.840;2023-07-16T03:24:39;5.43;;;2.90;;
6475;SDS011;3271;51.910;5.840;2023-07-16T03:27:05;5.18;;;2.17;;
6475;SDS011;3271;51.910;5.840;2023-07-16T03:29:32;6.75;;;2.30;;
6475;SDS011;3271;51.910;5.840;2023-07-16T03:31:58;2.85;;;2.55;;
6475;SDS011;3271;51.910;5.840;2023-07-16T03:34:24;4.50;;;2.58;;
6475;SDS011;3271;51.910;5.840;2023-07-16T03:36:50;5.82;;;2.50;;
6475;SDS011;3271;51.910;5.840;2023-07-16T03:39:16;3.70;;;2.20;;
6475;SDS011;3271;51.910;5.840;2023-07-16T03:41:42;5.00;;;2.85;;
6475;SDS011;3271;51.910;5.840;2023-07-16T03:44:08;3.90;;;2.60;;
6475;SDS011;3271;51.910;5.840;2023-07-16T03:46:34;4.60;;;2.65;;
6475;SDS011;3271;51.910;5.840;2023-07-16T03:49:00;4.47;;;2.63;;
6475;SDS011;3271;51.910;5.840;2023-07-16T03:51:26;9.25;;;2.88;;
6475;SDS011;3271;51.910;5.840;2023-07-16T03:53:52;3.08;;;2.50;;
6475;SDS011;3271;51.910;5.840;2023-07-16T03:56:17;5.03;;;2.80;;
6475;SDS011;3271;51.910;5.840;2023-07-16T03:58:43;6.93;;;3.03;;
6475;SDS011;3271;51.910;5.840;2023-07-16T04:01:09;6.95;;;2.78;;
6475;SDS011;3271;51.910;5.840;2023-07-16T04:03:35;5.45;;;2.50;;
6475;SDS011;3271;51.910;5.840;2023-07-16T04:06:02;3.38;;;2.42;;
6475;SDS011;3271;51.910;5.840;2023-07-16T04:08:28;3.72;;;2.00;;
6475;SDS011;3271;51.910;5.840;2023-07-16T04:10:54;4.85;;;2.15;;
6475;SDS011;3271;51.910;5.840;2023-07-16T04:13:20;3.38;;;2.38;;
6475;SDS011;3271;51.910;5.840;2023-07-16T04:15:46;5.85;;;2.42;;
6475;SDS011;3271;51.910;5.840;2023-07-16T04:18:12;3.47;;;2.50;;
6475;SDS011;3271;51.910;5.840;2023-07-16T04:20:37;7.32;;;2.70;;
6475;SDS011;3271;51.910;5.840;2023-07-16T04:23:03;7.28;;;2.90;;
6475;SDS011;3271;51.910;5.840;2023-07-16T04:25:29;4.18;;;3.03;;
6475;SDS011;3271;51.910;5.840;2023-07-16T04:27:55;6.20;;;2.58;;
6475;SDS011;3271;51.910;5.840;2023-07-16T04:30:22;5.85;;;2.90;;
6475;SDS011;3271;51.910;5.840;2023-07-16T04:32:47;7.03;;;3.35;;
6475;SDS011;3271;51.910;5.840;2023-07-16T04:35:13;5.97;;;2.67;;
6475;SDS011;3271;51.910;5.840;2023-07-16T04:37:39;4.28;;;3.22;;
6475;SDS011;3271;51.910;5.840;2023-07-16T04:40:05;4.50;;;2.60;;
6475;SDS011;3271;51.910;5.840;2023-07-16T04:42:31;4.35;;;2.95;;
6475;SDS011;3271;51.910;5.840;2023-07-16T04:44:57;5.97;;;3.40;;
6475;SDS011;3271;51.910;5.840;2023-07-16T04:47:23;6.75;;;3.60;;
6475;SDS011;3271;51.910;5.840;2023-07-16T04:49:49;4.15;;;3.42;;
6475;SDS011;3271;51.910;5.840;2023-07-16T04:52:15;5.18;;;2.88;;
6475;SDS011;3271;51.910;5.840;2023-07-16T04:54:41;5.70;;;3.72;;
6475;SDS011;3271;51.910;5.840;2023-07-16T04:57:07;5.55;;;3.25;;
6475;SDS011;3271;51.910;5.840;2023-07-16T04:59:33;10.57;;;3.97;;
6475;SDS011;3271;51.910;5.840;2023-07-16T05:02:01;8.38;;;3.55;;
6475;SDS011;3271;51.910;5.840;2023-07-16T05:04:28;12.82;;;3.95;;
6475;SDS011;3271;51.910;5.840;2023-07-16T05:06:53;6.93;;;3.20;;
6475;SDS011;3271;51.910;5.840;2023-07-16T05:09:19;5.43;;;3.22;;
6475;SDS011;3271;51.910;5.840;2023-07-16T05:11:45;6.97;;;3.22;;
6475;SDS011;3271;51.910;5.840;2023-07-16T05:14:11;5.80;;;2.80;;
6475;SDS011;3271;51.910;5.840;2023-07-16T05:16:37;4.57;;;3.35;;
6475;SDS011;3271;51.910;5.840;2023-07-16T05:19:03;6.93;;;3.58;;
6475;SDS011;3271;51.910;5.840;2023-07-16T05:21:29;6.18;;;3.70;;
6475;SDS011;3271;51.910;5.840;2023-07-16T05:23:55;4.45;;;4.00;;
6475;SDS011;3271;51.910;5.840;2023-07-16T05:26:21;5.55;;;3.10;;
6475;SDS011;3271;51.910;5.840;2023-07-16T05:28:47;5.82;;;3.83;;
6475;SDS011;3271;51.910;5.840;2023-07-16T05:31:13;6.53;;;4.53;;
6475;SDS011;3271;51.910;5.840;2023-07-16T05:33:39;5.15;;;3.25;;
6475;SDS011;3271;51.910;5.840;2023-07-16T05:36:05;6.50;;;3.90;;
6475;SDS011;3271;51.910;5.840;2023-07-16T05:38:31;5.97;;;3.70;;
6475;SDS011;3271;51.910;5.840;2023-07-16T05:41:03;9.07;;;4.82;;
6475;SDS011;3271;51.910;5.840;2023-07-16T05:43:30;6.60;;;3.92;;
6475;SDS011;3271;51.910;5.840;2023-07-16T05:45:56;9.25;;;4.45;;
6475;SDS011;3271;51.910;5.840;2023-07-16T05:48:21;6.20;;;4.30;;
6475;SDS011;3271;51.910;5.840;2023-07-16T05:50:47;6.57;;;3.92;;
6475;SDS011;3271;51.910;5.840;2023-07-16T05:53:13;8.88;;;4.18;;
6475;SDS011;3271;51.910;5.840;2023-07-16T05:55:39;4.38;;;3.97;;
6475;SDS011;3271;51.910;5.840;2023-07-16T05:58:05;8.57;;;5.00;;
6475;SDS011;3271;51.910;5.840;2023-07-16T06:00:31;6.47;;;4.25;;
6475;SDS011;3271;51.910;5.840;2023-07-16T06:02:57;7.60;;;4.35;;
6475;SDS011;3271;51.910;5.840;2023-07-16T06:05:23;9.43;;;5.25;;
6475;SDS011;3271;51.910;5.840;2023-07-16T06:07:51;7.57;;;4.43;;
6475;SDS011;3271;51.910;5.840;2023-07-16T06:10:17;8.20;;;4.32;;
6475;SDS011;3271;51.910;5.840;2023-07-16T06:12:43;5.75;;;3.97;;
6475;SDS011;3271;51.910;5.840;2023-07-16T06:15:09;9.82;;;4.40;;
6475;SDS011;3271;51.910;5.840;2023-07-16T06:17:35;6.28;;;4.43;;
6475;SDS011;3271;51.910;5.840;2023-07-16T06:20:02;6.20;;;4.45;;
6475;SDS011;3271;51.910;5.840;2023-07-16T06:22:28;6.07;;;4.53;;
6475;SDS011;3271;51.910;5.840;2023-07-16T06:24:54;8.80;;;4.80;;
6475;SDS011;3271;51.910;5.840;2023-07-16T06:27:20;8.18;;;4.55;;
6475;SDS011;3271;51.910;5.840;2023-07-16T06:29:46;8.73;;;4.95;;
6475;SDS011;3271;51.910;5.840;2023-07-16T06:32:12;8.93;;;4.78;;
6475;SDS011;3271;51.910;5.840;2023-07-16T06:34:38;7.75;;;4.45;;
6475;SDS011;3271;51.910;5.840;2023-07-16T06:37:04;8.82;;;5.45;;
6475;SDS011;3271;51.910;5.840;2023-07-16T06:39:30;7.75;;;4.65;;
6475;SDS011;3271;51.910;5.840;2023-07-16T06:41:56;6.10;;;4.57;;
6475;SDS011;3271;51.910;5.840;2023-07-16T06:44:22;8.80;;;4.93;;
6475;SDS011;3271;51.910;5.840;2023-07-16T06:46:48;7.47;;;4.72;;
6475;SDS011;3271;51.910;5.840;2023-07-16T06:49:14;7.05;;;4.75;;
6475;SDS011;3271;51.910;5.840;2023-07-16T06:51:40;6.95;;;4.35;;
6475;SDS011;3271;51.910;5.840;2023-07-16T06:54:06;5.72;;;4.78;;
6475;SDS011;3271;51.910;5.840;2023-07-16T06:56:33;8.93;;;4.70;;
6475;SDS011;3271;51.910;5.840;2023-07-16T06:58:59;10.13;;;5.20;;
6475;SDS011;3271;51.910;5.840;2023-07-16T07:01:25;6.68;;;4.78;;
6475;SDS011;3271;51.910;5.840;2023-07-16T07:03:52;9.18;;;5.13;;
6475;SDS011;3271;51.910;5.840;2023-07-16T07:06:18;8.23;;;4.97;;
6475;SDS011;3271;51.910;5.840;2023-07-16T07:08:46;7.00;;;4.63;;
6475;SDS011;3271;51.910;5.840;2023-07-16T07:11:12;6.13;;;4.93;;
6475;SDS011;3271;51.910;5.840;2023-07-16T07:13:37;8.95;;;5.22;;
6475;SDS011;3271;51.910;5.840;2023-07-16T07:16:03;8.68;;;4.60;;
6475;SDS011;3271;51.910;5.840;2023-07-16T07:18:29;8.07;;;5.07;;
6475;SDS011;3271;51.910;5.840;2023-07-16T07:20:56;7.57;;;5.07;;
6475;SDS011;3271;51.910;5.840;2023-07-16T07:23:21;7.47;;;4.88;;
6475;SDS011;3271;51.910;5.840;2023-07-16T07:25:48;10.60;;;5.53;;
6475;SDS011;3271;51.910;5.840;2023-07-16T07:28:15;8.05;;;5.15;;
6475;SDS011;3271;51.910;5.840;2023-07-16T07:30:41;16.83;;;6.05;;
6475;SDS011;3271;51.910;5.840;2023-07-16T07:33:07;7.13;;;5.20;;
6475;SDS011;3271;51.910;5.840;2023-07-16T07:35:33;8.85;;;4.80;;
6475;SDS011;3271;51.910;5.840;2023-07-16T07:37:58;10.05;;;5.30;;
6475;SDS011;3271;51.910;5.840;2023-07-16T07:40:25;7.95;;;4.70;;
6475;SDS011;3271;51.910;5.840;2023-07-16T07:42:51;9.13;;;5.43;;
6475;SDS011;3271;51.910;5.840;2023-07-16T07:45:19;8.70;;;5.00;;
6475;SDS011;3271;51.910;5.840;2023-07-16T07:47:45;6.18;;;4.60;;
6475;SDS011;3271;51.910;5.840;2023-07-16T07:50:11;8.48;;;5.07;;
6475;SDS011;3271;51.910;5.840;2023-07-16T07:52:37;8.55;;;4.90;;
6475;SDS011;3271;51.910;5.840;2023-07-16T07:55:03;5.97;;;3.92;;
6475;SDS011;3271;51.910;5.840;2023-07-16T07:57:29;7.85;;;4.60;;
6475;SDS011;3271;51.910;5.840;2023-07-16T07:59:55;9.00;;;4.78;;
6475;SDS011;3271;51.910;5.840;2023-07-16T08:02:22;7.57;;;5.25;;
6475;SDS011;3271;51.910;5.840;2023-07-16T08:04:49;10.88;;;5.50;;
6475;SDS011;3271;51.910;5.840;2023-07-16T08:07:15;8.25;;;5.43;;
6475;SDS011;3271;51.910;5.840;2023-07-16T08:09:41;7.10;;;4.93;;
6475;SDS011;3271;51.910;5.840;2023-07-16T08:12:07;5.78;;;4.40;;
6475;SDS011;3271;51.910;5.840;2023-07-16T08:14:33;6.95;;;4.82;;
6475;SDS011;3271;51.910;5.840;2023-07-16T08:16:59;7.30;;;4.68;;
6475;SDS011;3271;51.910;5.840;2023-07-16T08:19:25;9.05;;;5.25;;
6475;SDS011;3271;51.910;5.840;2023-07-16T08:21:51;6.80;;;4.90;;
6475;SDS011;3271;51.910;5.840;2023-07-16T08:24:17;7.75;;;4.68;;
6475;SDS011;3271;51.910;5.840;2023-07-16T08:26:43;7.63;;;4.82;;
6475;SDS011;3271;51.910;5.840;2023-07-16T08:29:09;7.30;;;5.20;;
6475;SDS011;3271;51.910;5.840;2023-07-16T08:31:35;10.32;;;6.03;;
6475;SDS011;3271;51.910;5.840;2023-07-16T08:34:01;9.20;;;5.40;;
6475;SDS011;3271;51.910;5.840;2023-07-16T08:36:27;10.80;;;5.25;;
6475;SDS011;3271;51.910;5.840;2023-07-16T08:38:53;9.00;;;4.78;;
6475;SDS011;3271;51.910;5.840;2023-07-16T08:41:19;8.93;;;5.18;;
6475;SDS011;3271;51.910;5.840;2023-07-16T08:43:45;7.25;;;4.50;;
6475;SDS011;3271;51.910;5.840;2023-07-16T08:46:12;8.15;;;4.78;;
6475;SDS011;3271;51.910;5.840;2023-07-16T08:48:38;7.75;;;5.07;;
6475;SDS011;3271;51.910;5.840;2023-07-16T08:51:05;8.15;;;4.90;;
6475;SDS011;3271;51.910;5.840;2023-07-16T08:53:32;8.05;;;5.15;;
6475;SDS011;3271;51.910;5.840;2023-07-16T08:55:58;7.22;;;5.00;;
6475;SDS011;3271;51.910;5.840;2023-07-16T08:58:24;9.65;;;5.90;;
6475;SDS011;3271;51.910;5.840;2023-07-16T09:00:51;6.57;;;4.93;;
6475;SDS011;3271;51.910;5.840;2023-07-16T09:03:17;6.78;;;5.03;;
6475;SDS011;3271;51.910;5.840;2023-07-16T09:05:44;6.93;;;4.93;;
6475;SDS011;3271;51.910;5.840;2023-07-16T09:08:09;6.32;;;5.05;;
6475;SDS011;3271;51.910;5.840;2023-07-16T09:10:36;8.32;;;5.18;;
6475;SDS011;3271;51.910;5.840;2023-07-16T09:13:02;6.22;;;5.00;;
6475;SDS011;3271;51.910;5.840;2023-07-16T09:15:28;7.53;;;4.97;;
6475;SDS011;3271;51.910;5.840;2023-07-16T09:17:54;8.35;;;4.32;;
6475;SDS011;3271;51.910;5.840;2023-07-16T09:20:21;8.73;;;4.72;;
6475;SDS011;3271;51.910;5.840;2023-07-16T09:22:48;6.18;;;4.18;;
6475;SDS011;3271;51.910;5.840;2023-07-16T09:25:15;7.60;;;4.35;;
6475;SDS011;3271;51.910;5.840;2023-07-16T09:27:41;8.75;;;5.10;;
6475;SDS011;3271;51.910;5.840;2023-07-16T09:30:14;8.85;;;4.80;;
6475;SDS011;3271;51.910;5.840;2023-07-16T09:32:40;9.05;;;4.85;;
6475;SDS011;3271;51.910;5.840;2023-07-16T09:35:09;5.50;;;4.25;;
6475;SDS011;3271;51.910;5.840;2023-07-16T09:37:35;7.07;;;4.97;;
6475;SDS011;3271;51.910;5.840;2023-07-16T09:40:07;5.90;;;4.72;;
6475;SDS011;3271;51.910;5.840;2023-07-16T09:42:38;9.27;;;4.63;;
6475;SDS011;3271;51.910;5.840;2023-07-16T09:45:05;8.40;;;4.82;;
6475;SDS011;3271;51.910;5.840;2023-07-16T09:47:32;7.60;;;4.85;;
6475;SDS011;3271;51.910;5.840;2023-07-16T09:49:58;8.57;;;4.10;;
6475;SDS011;3271;51.910;5.840;2023-07-16T09:52:24;8.63;;;4.40;;
6475;SDS011;3271;51.910;5.840;2023-07-16T09:54:52;8.60;;;4.53;;
6475;SDS011;3271;51.910;5.840;2023-07-16T09:57:18;9.30;;;4.90;;
6475;SDS011;3271;51.910;5.840;2023-07-16T09:59:44;6.90;;;5.10;;
6475;SDS011;3271;51.910;5.840;2023-07-16T10:02:11;6.07;;;4.47;;
6475;SDS011;3271;51.910;5.840;2023-07-16T10:04:38;6.38;;;4.97;;
6475;SDS011;3271;51.910;5.840;2023-07-16T10:07:17;8.02;;;4.35;;
6475;SDS011;3271;51.910;5.840;2023-07-16T10:09:56;9.25;;;4.72;;
6475;SDS011;3271;51.910;5.840;2023-07-16T10:12:25;6.85;;;4.28;;
6475;SDS011;3271;51.910;5.840;2023-07-16T10:14:52;6.43;;;4.70;;
6475;SDS011;3271;51.910;5.840;2023-07-16T10:17:22;5.22;;;4.18;;
6475;SDS011;3271;51.910;5.840;2023-07-16T10:19:49;9.57;;;5.00;;
6475;SDS011;3271;51.910;5.840;2023-07-16T10:22:15;7.55;;;5.05;;
6475;SDS011;3271;51.910;5.840;2023-07-16T10:24:41;4.80;;;3.83;;
6475;SDS011;3271;51.910;5.840;2023-07-16T10:27:07;9.45;;;4.40;;
6475;SDS011;3271;51.910;5.840;2023-07-16T10:29:33;8.20;;;4.35;;
6475;SDS011;3271;51.910;5.840;2023-07-16T10:32:01;7.45;;;4.22;;
6475;SDS011;3271;51.910;5.840;2023-07-16T10:34:27;10.60;;;4.45;;
6475;SDS011;3271;51.910;5.840;2023-07-16T10:36:53;7.97;;;4.55;;
6475;SDS011;3271;51.910;5.840;2023-07-16T10:39:19;6.90;;;4.40;;
6475;SDS011;3271;51.910;5.840;2023-07-16T10:41:45;8.50;;;5.80;;
6475;SDS011;3271;51.910;5.840;2023-07-16T10:44:14;7.20;;;4.97;;
6475;SDS011;3271;51.910;5.840;2023-07-16T10:46:43;8.73;;;5.43;;
6475;SDS011;3271;51.910;5.840;2023-07-16T10:49:09;6.45;;;4.35;;
6475;SDS011;3271;51.910;5.840;2023-07-16T10:51:35;7.72;;;4.32;;
6475;SDS011;3271;51.910;5.840;2023-07-16T10:54:01;9.65;;;4.75;;
6475;SDS011;3271;51.910;5.840;2023-07-16T10:56:30;6.70;;;3.90;;
6475;SDS011;3271;51.910;5.840;2023-07-16T10:58:59;8.52;;;4.38;;
6475;SDS011;3271;51.910;5.840;2023-07-16T11:01:25;6.55;;;4.10;;
6475;SDS011;3271;51.910;5.840;2023-07-16T11:03:50;7.90;;;4.13;;
6475;SDS011;3271;51.910;5.840;2023-07-16T11:06:17;8.02;;;3.50;;
6475;SDS011;3271;51.910;5.840;2023-07-16T11:08:44;7.85;;;5.15;;
6475;SDS011;3271;51.910;5.840;2023-07-16T11:11:10;8.23;;;4.70;;
6475;SDS011;3271;51.910;5.840;2023-07-16T11:13:35;7.65;;;3.67;;
6475;SDS011;3271;51.910;5.840;2023-07-16T11:16:08;10.60;;;4.50;;
6475;SDS011;3271;51.910;5.840;2023-07-16T11:18:34;5.28;;;4.55;;
6475;SDS011;3271;51.910;5.840;2023-07-16T11:21:00;7.90;;;4.00;;
6475;SDS011;3271;51.910;5.840;2023-07-16T11:23:26;4.38;;;3.97;;
6475;SDS011;3271;51.910;5.840;2023-07-16T11:25:52;6.32;;;4.15;;
6475;SDS011;3271;51.910;5.840;2023-07-16T11:28:18;7.35;;;3.85;;
6475;SDS011;3271;51.910;5.840;2023-07-16T11:30:44;6.18;;;3.55;;
6475;SDS011;3271;51.910;5.840;2023-07-16T11:33:10;6.45;;;4.53;;
6475;SDS011;3271;51.910;5.840;2023-07-16T11:35:36;5.90;;;4.00;;
6475;SDS011;3271;51.910;5.840;2023-07-16T11:38:05;8.05;;;5.38;;
6475;SDS011;3271;51.910;5.840;2023-07-16T11:40:33;7.93;;;5.82;;
6475;SDS011;3271;51.910;5.840;2023-07-16T11:43:07;6.47;;;4.15;;
6475;SDS011;3271;51.910;5.840;2023-07-16T11:45:33;5.35;;;4.03;;
6475;SDS011;3271;51.910;5.840;2023-07-16T11:47:59;8.18;;;4.68;;
6475;SDS011;3271;51.910;5.840;2023-07-16T11:50:25;8.27;;;4.53;;
6475;SDS011;3271;51.910;5.840;2023-07-16T11:52:52;8.00;;;4.82;;
6475;SDS011;3271;51.910;5.840;2023-07-16T11:55:18;8.48;;;4.45;;
6475;SDS011;3271;51.910;5.840;2023-07-16T11:57:44;8.70;;;4.35;;
6475;SDS011;3271;51.910;5.840;2023-07-16T12:00:10;10.85;;;5.00;;
6475;SDS011;3271;51.910;5.840;2023-07-16T12:02:37;7.57;;;5.25;;
6475;SDS011;3271;51.910;5.840;2023-07-16T12:05:03;7.88;;;4.25;;
6475;SDS011;3271;51.910;5.840;2023-07-16T12:07:32;6.00;;;4.30;;
6475;SDS011;3271;51.910;5.840;2023-07-16T12:09:59;6.22;;;4.25;;
6475;SDS011;3271;51.910;5.840;2023-07-16T12:12:25;7.47;;;4.43;;
6475;SDS011;3271;51.910;5.840;2023-07-16T12:14:51;6.43;;;3.92;;
6475;SDS011;3271;51.910;5.840;2023-07-16T12:17:17;6.25;;;4.38;;
6475;SDS011;3271;51.910;5.840;2023-07-16T12:19:43;7.00;;;4.88;;
6475;SDS011;3271;51.910;5.840;2023-07-16T12:22:08;7.90;;;4.57;;
6475;SDS011;3271;51.910;5.840;2023-07-16T12:24:35;7.70;;;4.38;;
6475;SDS011;3271;51.910;5.840;2023-07-16T12:27:01;6.95;;;4.10;;
6475;SDS011;3271;51.910;5.840;2023-07-16T12:29:27;7.65;;;4.70;;
6475;SDS011;3271;51.910;5.840;2023-07-16T12:31:52;6.47;;;4.60;;
6475;SDS011;3271;51.910;5.840;2023-07-16T12:34:18;7.95;;;4.80;;
6475;SDS011;3271;51.910;5.840;2023-07-16T12:36:44;6.15;;;4.28;;
6475;SDS011;3271;51.910;5.840;2023-07-16T12:39:10;5.28;;;3.90;;
6475;SDS011;3271;51.910;5.840;2023-07-16T12:41:36;6.53;;;4.20;;
6475;SDS011;3271;51.910;5.840;2023-07-16T12:44:02;6.13;;;4.05;;
6475;SDS011;3271;51.910;5.840;2023-07-16T12:46:28;6.50;;;3.53;;
6475;SDS011;3271;51.910;5.840;2023-07-16T12:48:54;6.93;;;3.30;;
6475;SDS011;3271;51.910;5.840;2023-07-16T12:51:20;6.40;;;3.63;;
6475;SDS011;3271;51.910;5.840;2023-07-16T12:53:46;4.90;;;3.78;;
6475;SDS011;3271;51.910;5.840;2023-07-16T12:56:12;7.60;;;4.47;;
6475;SDS011;3271;51.910;5.840;2023-07-16T12:58:38;4.80;;;4.13;;
6475;SDS011;3271;51.910;5.840;2023-07-16T13:01:04;6.22;;;4.18;;
6475;SDS011;3271;51.910;5.840;2023-07-16T13:03:30;6.43;;;3.90;;
6475;SDS011;3271;51.910;5.840;2023-07-16T13:05:55;5.97;;;3.90;;
6475;SDS011;3271;51.910;5.840;2023-07-16T13:08:21;6.00;;;3.78;;
6475;SDS011;3271;51.910;5.840;2023-07-16T13:10:47;6.72;;;3.67;;
6475;SDS011;3271;51.910;5.840;2023-07-16T13:13:13;6.80;;;3.83;;
6475;SDS011;3271;51.910;5.840;2023-07-16T13:15:39;5.55;;;4.00;;
6475;SDS011;3271;51.910;5.840;2023-07-16T13:18:05;6.70;;;3.75;;
6475;SDS011;3271;51.910;5.840;2023-07-16T13:20:31;6.50;;;4.32;;
6475;SDS011;3271;51.910;5.840;2023-07-16T13:22:57;6.07;;;4.00;;
6475;SDS011;3271;51.910;5.840;2023-07-16T13:25:23;5.78;;;3.78;;
6475;SDS011;3271;51.910;5.840;2023-07-16T13:27:49;6.72;;;4.75;;
6475;SDS011;3271;51.910;5.840;2023-07-16T13:30:15;6.32;;;3.78;;
6475;SDS011;3271;51.910;5.840;2023-07-16T13:32:41;6.78;;;5.72;;
6475;SDS011;3271;51.910;5.840;2023-07-16T13:35:07;6.20;;;4.57;;
6475;SDS011;3271;51.910;5.840;2023-07-16T13:37:33;12.82;;;6.75;;
6475;SDS011;3271;51.910;5.840;2023-07-16T13:39:59;9.45;;;5.45;;
6475;SDS011;3271;51.910;5.840;2023-07-16T13:42:25;6.10;;;3.42;;
6475;SDS011;3271;51.910;5.840;2023-07-16T13:44:51;5.88;;;3.50;;
6475;SDS011;3271;51.910;5.840;2023-07-16T13:47:17;5.70;;;3.08;;
6475;SDS011;3271;51.910;5.840;2023-07-16T13:49:43;6.40;;;3.67;;
6475;SDS011;3271;51.910;5.840;2023-07-16T13:52:09;7.30;;;5.10;;
6475;SDS011;3271;51.910;5.840;2023-07-16T13:54:35;6.45;;;4.57;;
6475;SDS011;3271;51.910;5.840;2023-07-16T13:57:00;3.88;;;3.03;;
6475;SDS011;3271;51.910;5.840;2023-07-16T13:59:26;7.30;;;3.30;;
6475;SDS011;3271;51.910;5.840;2023-07-16T14:01:59;3.97;;;2.80;;
6475;SDS011;3271;51.910;5.840;2023-07-16T14:04:26;4.72;;;3.20;;
6475;SDS011;3271;51.910;5.840;2023-07-16T14:06:51;3.50;;;2.67;;
6475;SDS011;3271;51.910;5.840;2023-07-16T14:09:18;4.22;;;2.75;;
6475;SDS011;3271;51.910;5.840;2023-07-16T14:11:44;3.78;;;2.58;;
6475;SDS011;3271;51.910;5.840;2023-07-16T14:14:12;5.45;;;3.33;;
6475;SDS011;3271;51.910;5.840;2023-07-16T14:16:38;11.60;;;7.60;;
6475;SDS011;3271;51.910;5.840;2023-07-16T14:19:04;3.33;;;2.33;;
6475;SDS011;3271;51.910;5.840;2023-07-16T14:21:30;4.72;;;2.78;;
6475;SDS011;3271;51.910;5.840;2023-07-16T14:23:56;5.72;;;2.83;;
6475;SDS011;3271;51.910;5.840;2023-07-16T14:26:22;6.35;;;2.55;;
6475;SDS011;3271;51.910;5.840;2023-07-16T14:28:48;10.90;;;9.32;;
6475;SDS011;3271;51.910;5.840;2023-07-16T14:31:14;3.72;;;2.13;;
6475;SDS011;3271;51.910;5.840;2023-07-16T14:33:40;2.90;;;2.55;;
6475;SDS011;3271;51.910;5.840;2023-07-16T14:36:06;6.05;;;2.25;;
6475;SDS011;3271;51.910;5.840;2023-07-16T14:38:32;4.45;;;2.20;;
6475;SDS011;3271;51.910;5.840;2023-07-16T14:40:57;4.00;;;3.22;;
6475;SDS011;3271;51.910;5.840;2023-07-16T14:43:23;4.78;;;2.17;;
6475;SDS011;3271;51.910;5.840;2023-07-16T14:45:49;2.55;;;2.25;;
6475;SDS011;3271;51.910;5.840;2023-07-16T14:48:15;5.10;;;2.40;;
6475;SDS011;3271;51.910;5.840;2023-07-16T14:50:41;4.47;;;2.03;;
6475;SDS011;3271;51.910;5.840;2023-07-16T14:53:07;4.00;;;3.13;;
6475;SDS011;3271;51.910;5.840;2023-07-16T14:55:33;2.53;;;2.20;;
6475;SDS011;3271;51.910;5.840;2023-07-16T14:57:59;3.65;;;2.25;;
6475;SDS011;3271;51.910;5.840;2023-07-16T15:00:25;3.72;;;2.28;;
6475;SDS011;3271;51.910;5.840;2023-07-16T15:02:51;3.63;;;2.40;;
6475;SDS011;3271;51.910;5.840;2023-07-16T15:05:17;8.18;;;2.80;;
6475;SDS011;3271;51.910;5.840;2023-07-16T15:07:43;2.65;;;1.90;;
6475;SDS011;3271;51.910;5.840;2023-07-16T15:10:09;4.38;;;2.38;;
6475;SDS011;3271;51.910;5.840;2023-07-16T15:12:35;23.98;;;15.13;;